createdAt,value
2023-01-07T00:02:28.221Z,1.90
2023-01-07T00:05:32.414Z,2.47
2023-01-07T00:08:36.793Z,2.33
2023-01-07T00:11:41.613Z,2.37
2023-01-07T00:14:44.471Z,2.50
2023-01-07T00:17:47.291Z,2.00
2023-01-07T00:20:51.465Z,2.00
2023-01-07T00:23:56.152Z,1.93
2023-01-07T00:26:58.964Z,2.57
2023-01-07T00:30:01.851Z,2.07
2023-01-07T00:33:06.283Z,2.03
2023-01-07T00:36:11.661Z,1.97
2023-01-07T00:39:17.468Z,2.07
2023-01-07T00:42:37.673Z,2.53
2023-01-07T00:45:40.536Z,3.10
2023-01-07T00:48:44.836Z,3.03
2023-01-07T00:51:49.014Z,2.43
2023-01-07T00:54:51.849Z,1.67
2023-01-07T00:57:55.240Z,2.20
2023-01-07T01:00:59.196Z,2.20
2023-01-07T01:04:02.601Z,1.83
2023-01-07T01:07:06.778Z,2.13
2023-01-07T01:10:12.351Z,2.70
2023-01-07T01:13:18.281Z,2.40
2023-01-07T01:16:21.433Z,1.97
2023-01-07T01:19:24.407Z,2.40
2023-01-07T01:22:29.106Z,1.67
2023-01-07T01:25:31.944Z,2.37
2023-01-07T01:28:35.457Z,2.10
2023-01-07T01:31:38.344Z,1.97
2023-01-07T01:34:41.621Z,2.00
2023-01-07T01:37:45.775Z,1.70
2023-01-07T01:40:48.745Z,2.17
2023-01-07T01:43:51.888Z,1.73
2023-01-07T01:46:54.881Z,1.73
2023-01-07T01:50:02.799Z,1.60
2023-01-07T01:53:10.915Z,1.73
2023-01-07T01:56:17.112Z,2.53
2023-01-07T01:59:23.393Z,2.00
2023-01-07T02:02:30.858Z,1.73
2023-01-07T02:05:39.886Z,1.83
2023-01-07T02:08:44.619Z,1.27
2023-01-07T02:11:56.450Z,1.53
2023-01-07T02:15:09.590Z,1.83
2023-01-07T02:18:38.744Z,1.57
2023-01-07T02:21:52.690Z,2.67
2023-01-07T02:25:19.923Z,9.03
2023-01-07T02:28:53.159Z,4.37
2023-01-07T02:32:24.274Z,4.70
2023-01-07T02:35:39.877Z,4.33
2023-01-07T02:38:54.648Z,3.17
2023-01-07T02:42:00.054Z,3.73
2023-01-07T02:45:09.650Z,3.40
2023-01-07T02:48:16.642Z,2.83
2023-01-07T02:51:19.488Z,1.87
2023-01-07T02:54:24.722Z,1.27
2023-01-07T02:58:08.893Z,1.30
2023-01-07T03:01:25.093Z,1.73
2023-01-07T03:04:44.219Z,1.37
2023-01-07T03:07:57.467Z,1.23
2023-01-07T03:11:01.975Z,1.60
2023-01-07T03:14:09.663Z,1.40
2023-01-07T03:17:18.394Z,1.40
2023-01-07T03:20:25.912Z,1.40
2023-01-07T03:23:30.804Z,1.30
2023-01-07T03:26:38.243Z,1.50
2023-01-07T03:29:41.548Z,1.60
2023-01-07T03:32:48.024Z,1.30
2023-01-07T03:35:54.067Z,1.33
2023-01-07T03:38:58.327Z,1.67
2023-01-07T03:42:18.584Z,1.20
2023-01-07T03:45:23.918Z,1.30
2023-01-07T03:48:26.887Z,1.43
2023-01-07T03:51:31.128Z,0.80
2023-01-07T03:54:33.922Z,1.10
2023-01-07T03:57:37.034Z,0.83
2023-01-07T04:00:39.866Z,1.00
2023-01-07T04:03:42.672Z,1.10
2023-01-07T04:06:47.242Z,1.30
2023-01-07T04:09:50.851Z,0.90
2023-01-07T04:12:53.724Z,1.40
2023-01-07T04:15:56.545Z,1.73
2023-01-07T04:18:59.387Z,1.07
2023-01-07T04:22:03.535Z,1.63
2023-01-07T04:25:07.205Z,1.30
2023-01-07T04:28:10.106Z,1.70
2023-01-07T04:31:12.974Z,2.27
2023-01-07T04:34:15.818Z,1.00
2023-01-07T04:37:20.004Z,1.07
2023-01-07T04:40:22.825Z,1.17
2023-01-07T04:43:25.707Z,2.20
2023-01-07T04:46:28.548Z,1.10
2023-01-07T04:49:31.379Z,1.20
2023-01-07T04:52:35.785Z,1.60
2023-01-07T04:55:38.920Z,1.50
2023-01-07T04:58:42.100Z,1.67
2023-01-07T05:01:44.978Z,1.40
2023-01-07T05:04:48.157Z,2.17
2023-01-07T05:07:52.395Z,1.43
2023-01-07T05:10:55.301Z,1.47
2023-01-07T05:14:01.061Z,1.23
2023-01-07T05:17:03.971Z,1.63
2023-01-07T05:20:08.729Z,1.60
2023-01-07T05:23:13.046Z,1.67
2023-01-07T05:26:15.869Z,1.40
2023-01-07T05:29:18.680Z,1.60
2023-01-07T05:32:21.531Z,1.80
2023-01-07T05:35:24.373Z,1.40
2023-01-07T05:38:28.640Z,1.83
2023-01-07T05:41:31.528Z,1.20
2023-01-07T05:44:34.354Z,2.43
2023-01-07T05:47:37.170Z,1.67
2023-01-07T05:50:40.117Z,1.67
2023-01-07T05:53:44.272Z,4.40
2023-01-07T05:56:47.116Z,2.93
2023-01-07T05:59:49.933Z,2.20
2023-01-07T06:02:52.791Z,1.63
2023-01-07T06:05:55.607Z,1.83
2023-01-07T06:08:59.791Z,1.53
2023-01-07T06:12:02.609Z,2.80
2023-01-07T06:15:07.081Z,1.90
2023-01-07T06:18:10.011Z,1.63
2023-01-07T06:21:12.849Z,1.70
2023-01-07T06:24:17.096Z,1.87
2023-01-07T06:27:19.917Z,1.80
2023-01-07T06:30:22.835Z,1.60
2023-01-07T06:33:25.644Z,1.67
2023-01-07T06:36:28.464Z,1.70
2023-01-07T06:39:32.614Z,1.80
2023-01-07T06:42:35.582Z,1.97
2023-01-07T06:45:40.649Z,2.80
2023-01-07T06:48:44.240Z,1.90
2023-01-07T06:51:47.053Z,2.13
2023-01-07T06:54:51.222Z,2.43
2023-01-07T06:57:54.088Z,1.83
2023-01-07T07:00:56.929Z,3.20
2023-01-07T07:03:59.814Z,2.87
2023-01-07T07:07:02.608Z,3.40
2023-01-07T07:10:08.809Z,3.90
2023-01-07T07:13:12.003Z,3.13
2023-01-07T07:16:14.870Z,2.57
2023-01-07T07:19:17.724Z,5.40
2023-01-07T07:22:20.537Z,4.73
2023-01-07T07:25:24.759Z,5.00
2023-01-07T07:28:27.579Z,5.50
2023-01-07T07:31:30.413Z,5.33
2023-01-07T07:34:35.195Z,7.23
2023-01-07T07:37:39.037Z,5.17
2023-01-07T07:40:43.193Z,4.87
2023-01-07T07:43:46.003Z,4.23
2023-01-07T07:46:48.921Z,4.17
2023-01-07T07:49:52.063Z,4.07
2023-01-07T07:52:56.463Z,5.00
2023-01-07T07:56:00.773Z,4.07
2023-01-07T07:59:03.790Z,4.17
2023-01-07T08:02:07.024Z,4.43
2023-01-07T08:05:11.366Z,4.27
2023-01-07T08:08:15.817Z,3.83
2023-01-07T08:11:20.005Z,2.90
2023-01-07T08:14:22.856Z,3.90
2023-01-07T08:17:25.678Z,4.27
2023-01-07T08:20:28.881Z,3.03
2023-01-07T08:23:31.675Z,2.90
2023-01-07T08:26:35.824Z,4.83
2023-01-07T08:29:38.670Z,2.83
2023-01-07T08:32:41.486Z,2.83
2023-01-07T08:35:45.672Z,3.13
2023-01-07T08:38:51.731Z,2.90
2023-01-07T08:41:55.994Z,3.90
2023-01-07T08:44:59.131Z,2.53
2023-01-07T08:48:02.089Z,5.13
2023-01-07T08:51:05.007Z,3.33
2023-01-07T08:54:07.847Z,3.30
2023-01-07T08:57:12.004Z,2.67
2023-01-07T09:00:16.151Z,5.53
2023-01-07T09:03:19.163Z,3.67
2023-01-07T09:06:23.215Z,2.83
2023-01-07T09:09:26.057Z,2.77
2023-01-07T09:12:30.237Z,3.17
2023-01-07T09:15:33.063Z,2.33
2023-01-07T09:18:35.903Z,2.40
2023-01-07T09:21:38.756Z,2.60
2023-01-07T09:24:41.574Z,2.27
2023-01-07T09:27:46.620Z,2.07
2023-01-07T09:30:49.449Z,2.50
2023-01-07T09:33:52.302Z,2.30
2023-01-07T09:36:55.133Z,2.23
2023-01-07T09:39:57.971Z,2.00
2023-01-07T09:43:08.815Z,2.13
2023-01-07T09:46:12.903Z,1.73
2023-01-07T09:49:19.483Z,2.13
2023-01-07T09:52:30.501Z,1.90
2023-01-07T09:55:36.310Z,2.30
2023-01-07T09:58:42.841Z,2.00
2023-01-07T10:01:50.687Z,1.83
2023-01-07T10:05:03.255Z,4.67
2023-01-07T10:08:29.349Z,1.70
2023-01-07T10:11:46.439Z,1.93
2023-01-07T10:15:06.187Z,1.90
2023-01-07T10:18:31.469Z,2.37
2023-01-07T10:21:41.114Z,2.23
2023-01-07T10:24:47.288Z,2.20
2023-01-07T10:27:52.385Z,1.80
2023-01-07T10:30:56.585Z,1.60
2023-01-07T10:34:00.712Z,1.83
2023-01-07T10:37:07.161Z,2.43
2023-01-07T10:40:26.080Z,1.90
2023-01-07T10:43:44.898Z,2.10
2023-01-07T10:47:00.457Z,2.07
2023-01-07T10:50:31.088Z,2.90
2023-01-07T10:53:45.130Z,1.90
2023-01-07T10:56:51.057Z,1.70
2023-01-07T10:59:56.933Z,1.80
2023-01-07T11:03:01.268Z,2.20
2023-01-07T11:06:09.396Z,2.07
2023-01-07T11:09:18.309Z,1.73
2023-01-07T11:12:36.957Z,2.43
2023-01-07T11:15:45.920Z,2.97
2023-01-07T11:18:55.929Z,2.47
2023-01-07T11:21:58.775Z,2.20
2023-01-07T11:25:03.438Z,4.30
2023-01-07T11:28:17.710Z,6.03
2023-01-07T11:31:21.732Z,6.43
2023-01-07T11:34:29.247Z,1.83
2023-01-07T11:37:35.037Z,2.07
2023-01-07T11:40:37.852Z,1.73
2023-01-07T11:43:41.564Z,1.57
2023-01-07T11:46:45.541Z,1.57
2023-01-07T11:49:50.340Z,2.70
2023-01-07T11:53:01.122Z,1.70
2023-01-07T11:56:06.364Z,1.50
2023-01-07T11:59:26.649Z,1.50
2023-01-07T12:02:29.648Z,2.10
2023-01-07T12:05:33.804Z,1.30
2023-01-07T12:08:36.960Z,1.30
2023-01-07T12:11:42.666Z,1.57
2023-01-07T12:14:48.648Z,1.40
2023-01-07T12:18:03.936Z,1.30
2023-01-07T12:21:36.095Z,1.60
2023-01-07T12:25:11.939Z,1.10
2023-01-07T12:28:17.540Z,1.30
2023-01-07T12:31:30.810Z,3.10
2023-01-07T12:34:43.309Z,1.20
2023-01-07T12:37:53.401Z,3.10
2023-01-07T12:41:01.605Z,1.03
2023-01-07T12:44:12.492Z,2.80
2023-01-07T12:47:30.893Z,1.23
2023-01-07T12:50:41.515Z,1.40
2023-01-07T12:53:51.467Z,6.63
2023-01-07T12:56:57.669Z,1.40
2023-01-07T13:00:08.329Z,2.63
2023-01-07T13:03:23.010Z,1.67
2023-01-07T13:06:38.315Z,1.00
2023-01-07T13:09:48.813Z,1.33
2023-01-07T13:12:57.517Z,1.13
2023-01-07T13:16:00.901Z,1.83
2023-01-07T13:19:03.775Z,1.40
2023-01-07T13:22:07.214Z,0.90
2023-01-07T13:25:25.737Z,1.03
2023-01-07T13:29:01.397Z,1.93
2023-01-07T13:32:26.570Z,2.90
2023-01-07T13:39:49.465Z,1.10
2023-01-07T13:42:56.700Z,0.90
2023-01-07T13:46:04.637Z,0.87
2023-01-07T13:49:19.504Z,1.20
2023-01-07T13:52:24.434Z,1.10
2023-01-07T13:55:35.023Z,0.97
2023-01-07T13:58:48.040Z,1.20
2023-01-07T14:02:17.010Z,0.83
2023-01-07T14:05:28.403Z,0.90
2023-01-07T14:08:31.362Z,1.70
2023-01-07T14:11:52.315Z,1.33
2023-01-07T14:15:21.525Z,1.57
2023-01-07T14:19:00.076Z,1.27
2023-01-07T14:22:08.520Z,1.37
2023-01-07T14:25:33.453Z,0.70
2023-01-07T14:29:00.520Z,1.50
2023-01-07T14:32:28.356Z,1.00
2023-01-07T14:35:34.960Z,1.07
2023-01-07T14:38:57.450Z,1.30
2023-01-07T14:42:28.821Z,0.87
2023-01-07T14:45:55.254Z,0.83
2023-01-07T14:49:22.507Z,1.23
2023-01-07T14:53:01.813Z,1.57
2023-01-07T14:56:20.559Z,1.30
2023-01-07T14:59:37.863Z,3.63
2023-01-07T15:03:08.727Z,5.93
2023-01-07T15:06:31.739Z,1.37
2023-01-07T15:09:58.033Z,3.17
2023-01-07T15:13:19.391Z,1.53
2023-01-07T15:16:23.445Z,2.07
2023-01-07T15:19:26.484Z,1.10
2023-01-07T15:22:54.178Z,1.13
2023-01-07T15:26:04.508Z,1.73
2023-01-07T15:29:15.162Z,3.23
2023-01-07T15:32:30.723Z,2.80
2023-01-07T15:35:38.422Z,1.67
2023-01-07T15:38:46.841Z,2.83
2023-01-07T15:41:53.137Z,5.23
2023-01-07T15:44:58.075Z,3.93
2023-01-07T15:48:08.927Z,6.07
2023-01-07T15:51:16.696Z,3.07
2023-01-07T15:54:30.421Z,2.80
2023-01-07T15:57:35.353Z,3.33
2023-01-07T16:00:38.269Z,3.00
2023-01-07T16:03:44.478Z,4.73
2023-01-07T16:06:47.328Z,4.07
2023-01-07T16:09:52.385Z,4.87
2023-01-07T16:12:57.023Z,4.37
2023-01-07T16:16:03.396Z,5.63
2023-01-07T16:19:06.507Z,6.73
2023-01-07T16:22:14.583Z,4.90
2023-01-07T16:25:28.690Z,5.60
2023-01-07T16:28:34.707Z,5.87
2023-01-07T16:31:38.623Z,7.23
2023-01-07T16:35:00.230Z,10.90
2023-01-07T16:38:03.660Z,13.13
2023-01-07T16:41:08.184Z,11.33
2023-01-07T16:44:57.591Z,8.50
2023-01-07T16:48:03.110Z,6.10
2023-01-07T16:51:06.213Z,6.53
2023-01-07T16:54:32.256Z,6.53
2023-01-07T16:57:42.026Z,8.10
2023-01-07T17:00:50.538Z,7.23
2023-01-07T17:03:56.657Z,8.00
2023-01-07T17:07:01.871Z,9.33
2023-01-07T17:10:06.155Z,11.00
2023-01-07T17:13:33.557Z,16.03
2023-01-07T17:16:37.554Z,11.67
2023-01-07T17:19:42.476Z,9.77
2023-01-07T17:22:45.844Z,10.77
2023-01-07T17:25:51.218Z,10.47
2023-01-07T17:28:57.437Z,11.53
2023-01-07T17:32:00.290Z,9.57
2023-01-07T17:35:04.370Z,7.80
2023-01-07T17:38:10.284Z,9.07
2023-01-07T17:41:35.274Z,10.03
2023-01-07T17:44:38.474Z,12.03
2023-01-07T17:47:41.345Z,11.20
2023-01-07T17:50:44.656Z,9.47
2023-01-07T17:53:49.116Z,10.80
2023-01-07T17:56:52.366Z,9.23
2023-01-07T17:59:58.030Z,11.30
2023-01-07T18:03:00.994Z,11.63
2023-01-07T18:06:03.918Z,11.97
2023-01-07T18:09:08.559Z,12.47
2023-01-07T18:12:33.367Z,11.50
2023-01-07T18:15:37.492Z,12.50
2023-01-07T18:18:40.414Z,13.83
2023-01-07T18:21:43.247Z,36.47
2023-01-07T18:24:46.057Z,28.27
2023-01-07T18:27:52.561Z,25.27
2023-01-07T18:30:56.965Z,15.63
2023-01-07T18:33:59.756Z,18.40
2023-01-07T18:37:02.650Z,14.27
2023-01-07T18:40:06.630Z,17.60
2023-01-07T18:43:13.069Z,15.10
2023-01-07T18:46:17.795Z,15.00
2023-01-07T18:49:20.652Z,15.47
2023-01-07T18:52:23.896Z,15.73
2023-01-07T18:55:27.458Z,17.70
2023-01-07T18:58:30.546Z,16.47
2023-01-07T19:01:34.837Z,15.37
2023-01-07T19:04:39.758Z,24.07
2023-01-07T19:07:43.372Z,16.30
2023-01-07T19:10:46.153Z,14.43
2023-01-07T19:13:48.944Z,14.97
2023-01-07T19:16:54.569Z,11.93
2023-01-07T19:19:57.395Z,10.37
2023-01-07T19:23:01.124Z,10.93
2023-01-07T19:26:06.397Z,10.33
2023-01-07T19:29:09.576Z,8.37
2023-01-07T19:32:13.688Z,7.10
2023-01-07T19:35:16.557Z,6.90
2023-01-07T19:38:19.417Z,5.20
2023-01-07T19:41:23.582Z,5.80
2023-01-07T19:44:26.571Z,5.63
2023-01-07T19:47:30.803Z,5.70
2023-01-07T19:50:33.722Z,9.40
2023-01-07T19:53:37.086Z,6.47
2023-01-07T19:56:40.773Z,10.80
2023-01-07T19:59:43.551Z,20.37
2023-01-07T20:02:47.819Z,10.10
2023-01-07T20:05:50.712Z,8.70
2023-01-07T20:08:54.731Z,8.30
2023-01-07T20:11:57.528Z,8.27
2023-01-07T20:15:00.358Z,8.77
2023-01-07T20:18:04.661Z,7.33
2023-01-07T20:21:08.470Z,7.57
2023-01-07T20:24:13.169Z,10.87
2023-01-07T20:27:15.982Z,8.63
2023-01-07T20:30:18.856Z,8.17
2023-01-07T20:33:22.959Z,13.30
2023-01-07T20:36:28.092Z,19.07
2023-01-07T20:39:30.893Z,12.53
2023-01-07T20:42:33.810Z,9.57
2023-01-07T20:45:38.536Z,9.17
2023-01-07T20:48:42.906Z,9.23
2023-01-07T20:51:45.817Z,12.93
2023-01-07T20:54:48.872Z,9.70
2023-01-07T20:57:51.672Z,10.33
2023-01-07T21:00:54.677Z,11.03
2023-01-07T21:03:58.932Z,11.73
2023-01-07T21:07:01.747Z,14.17
2023-01-07T21:10:05.042Z,11.53
2023-01-07T21:13:07.835Z,11.07
2023-01-07T21:16:11.760Z,12.80
2023-01-07T21:19:15.912Z,10.43
2023-01-07T21:22:18.705Z,9.93
2023-01-07T21:25:21.550Z,9.63
2023-01-07T21:28:24.440Z,9.73
2023-01-07T21:31:27.895Z,10.07
2023-01-07T21:34:32.172Z,10.60
2023-01-07T21:37:35.020Z,9.83
2023-01-07T21:40:39.185Z,10.80
2023-01-07T21:43:42.209Z,9.80
2023-01-07T21:46:45.042Z,11.57
2023-01-07T21:49:49.624Z,10.97
2023-01-07T21:52:52.443Z,10.00
2023-01-07T21:55:55.247Z,9.77
2023-01-07T21:58:58.082Z,9.27
2023-01-07T22:02:01.111Z,9.10
2023-01-07T22:05:05.808Z,8.20
2023-01-07T22:08:09.098Z,11.10
2023-01-07T22:11:14.235Z,10.33
2023-01-07T22:14:19.354Z,10.90
2023-01-07T22:17:23.973Z,11.40
2023-01-07T22:20:28.197Z,12.03
2023-01-07T22:23:30.992Z,16.33
2023-01-07T22:26:33.882Z,10.90
2023-01-07T22:29:37.531Z,12.00
2023-01-07T22:32:40.354Z,12.80
2023-01-07T22:35:44.964Z,13.17
2023-01-07T22:38:47.889Z,13.23
2023-01-07T22:41:55.433Z,12.60
2023-01-07T22:45:03.582Z,12.77
2023-01-07T22:48:08.243Z,11.37
2023-01-07T22:51:19.863Z,11.87
2023-01-07T22:54:22.733Z,11.27
2023-01-07T22:57:25.809Z,11.57
2023-01-07T23:00:42.417Z,11.30
2023-01-07T23:03:46.157Z,15.50
2023-01-07T23:06:50.401Z,10.47
2023-01-07T23:09:53.180Z,11.13
2023-01-07T23:12:56.038Z,10.23
2023-01-07T23:16:01.835Z,12.60
2023-01-07T23:19:04.731Z,12.17
2023-01-07T23:22:08.885Z,12.73
2023-01-07T23:25:11.750Z,10.83
2023-01-07T23:28:14.784Z,11.77
2023-01-07T23:31:17.618Z,10.60
2023-01-07T23:34:20.461Z,11.57
2023-01-07T23:37:24.706Z,10.90
2023-01-07T23:40:27.844Z,10.43
2023-01-07T23:43:31.100Z,10.97
2023-01-07T23:46:33.940Z,11.00
2023-01-07T23:49:36.756Z,11.53
2023-01-07T23:52:40.959Z,10.77
2023-01-07T23:55:51.593Z,9.87
2023-01-07T23:58:54.458Z,10.43
